Time;durP1;ratioP1;P1;durP2;ratioP2;P2;SDS_P1;SDS_P2;PMS_P1;PMS_P2;Temp;Humidity;BMP_temperature;BMP_pressure;BME280_temperature;BME280_humidity;BME280_pressure;Samples;Min_cycle;Max_cycle;Signal;HPM_P1;HPM_P2
2023/03/16 00:01:06;;;;;;;10.57;6.30;;;2.30;99.90;;;;;;5073897;28;20045;-51
2023/03/16 00:03:35;;;;;;;12.88;6.25;;;2.30;99.90;;;;;;5073826;28;20044;-52
2023/03/16 00:06:02;;;;;;;10.27;5.75;;;2.30;99.90;;;;;;5073213;28;20045;-54
2023/03/16 00:08:29;;;;;;;11.20;6.07;;;2.10;99.90;;;;;;5073079;28;20094;-52
2023/03/16 00:10:55;;;;;;;10.30;6.25;;;2.00;99.90;;;;;;5073623;28;20115;-50
2023/03/16 00:13:23;;;;;;;8.00;4.57;;;1.90;99.90;;;;;;5073800;28;20036;-51
2023/03/16 00:15:55;;;;;;;12.50;6.18;;;1.90;99.90;;;;;;5073286;28;20044;-52
2023/03/16 00:18:27;;;;;;;13.05;7.03;;;1.80;99.90;;;;;;5071114;28;20044;-52
2023/03/16 00:20:57;;;;;;;13.15;7.07;;;1.80;99.90;;;;;;5073179;28;20040;-53
2023/03/16 00:23:27;;;;;;;11.48;6.57;;;1.80;99.90;;;;;;5073602;28;20049;-53
2023/03/16 00:25:59;;;;;;;15.85;7.60;;;1.70;99.90;;;;;;5073313;28;20068;-49
2023/03/16 00:28:28;;;;;;;16.15;7.55;;;1.70;99.90;;;;;;5072945;28;20609;-51
2023/03/16 00:30:57;;;;;;;17.13;8.38;;;1.70;99.90;;;;;;5073662;28;20067;-50
2023/03/16 00:33:25;;;;;;;12.48;7.82;;;1.70;99.90;;;;;;5072491;28;20055;-52
2023/03/16 00:36:00;;;;;;;;;;;1.70;99.90;;;;;;5055356;28;20497;-52
2023/03/16 00:38:31;;;;;;;12.57;7.95;;;1.80;99.90;;;;;;5054233;28;20532;-51
2023/03/16 00:40:58;;;;;;;14.25;8.30;;;1.90;99.90;;;;;;5055061;28;20098;-51
2023/03/16 00:43:26;;;;;;;15.02;7.65;;;1.90;99.90;;;;;;5069885;28;20067;-54
2023/03/16 00:46:05;;;;;;;16.23;8.20;;;2.00;99.90;;;;;;5055067;28;20076;-54
2023/03/16 00:48:38;;;;;;;14.07;7.70;;;2.10;99.90;;;;;;5068616;28;20469;-52
2023/03/16 00:51:08;;;;;;;15.68;8.25;;;2.00;99.90;;;;;;5089703;28;20047;-53
2023/03/16 00:53:35;;;;;;;16.05;7.32;;;2.00;99.90;;;;;;5074477;28;20044;-52
2023/03/16 00:56:03;;;;;;;13.65;7.65;;;2.00;99.90;;;;;;5071723;28;20067;-54
2023/03/16 00:58:35;;;;;;;13.25;7.80;;;1.90;99.90;;;;;;5054629;28;20037;-50
2023/03/16 01:01:07;;;;;;;16.00;8.60;;;1.90;99.90;;;;;;5055245;28;20040;-53
2023/03/16 01:03:34;;;;;;;14.70;8.25;;;2.00;99.90;;;;;;5072485;28;20064;-56
2023/03/16 01:06:09;;;;;;;16.65;7.13;;;2.00;99.90;;;;;;5072108;28;20046;-50
2023/03/16 01:08:37;;;;;;;18.42;8.95;;;1.90;99.90;;;;;;5092193;28;20428;-50
2023/03/16 01:11:10;;;;;;;12.70;7.82;;;1.90;99.90;;;;;;5093168;28;20109;-53
2023/03/16 01:13:38;;;;;;;13.32;7.65;;;2.00;99.90;;;;;;5059188;28;20528;-55
2023/03/16 01:16:05;;;;;;;15.52;8.80;;;2.00;99.90;;;;;;5063690;28;20048;-52
2023/03/16 01:18:33;;;;;;;15.05;8.50;;;1.90;99.90;;;;;;5092294;28;20048;-54
2023/03/16 01:21:00;;;;;;;13.93;8.00;;;1.90;99.90;;;;;;5092644;28;20036;-53
2023/03/16 01:23:29;;;;;;;14.63;8.27;;;1.90;99.90;;;;;;5066924;28;20048;-53
2023/03/16 01:25:56;;;;;;;15.00;8.10;;;1.90;99.90;;;;;;5054637;28;20647;-49
2023/03/16 01:28:25;;;;;;;15.73;9.15;;;1.90;99.90;;;;;;5071991;28;20516;-54
2023/03/16 01:30:56;;;;;;;20.95;9.32;;;1.90;99.90;;;;;;5053430;28;20120;-50
2023/03/16 01:33:25;;;;;;;13.23;7.90;;;1.90;99.90;;;;;;5064802;28;20037;-52
2023/03/16 01:35:58;;;;;;;15.75;8.52;;;1.80;99.90;;;;;;5053299;28;20040;-51
2023/03/16 01:38:28;;;;;;;12.90;7.90;;;1.80;99.90;;;;;;5064890;28;20056;-56
2023/03/16 01:40:55;;;;;;;14.43;8.02;;;1.80;99.90;;;;;;5082396;28;20082;-52
2023/03/16 01:43:28;;;;;;;15.00;8.13;;;1.80;99.90;;;;;;5073640;28;20248;-52
2023/03/16 01:46:04;;;;;;;15.98;8.80;;;1.80;99.90;;;;;;5073213;28;20629;-51
2023/03/16 01:48:55;;;;;;;24.92;9.73;;;1.80;99.90;;;;;;5064437;28;20056;-51
2023/03/16 01:51:45;;;;;;;14.10;8.40;;;1.80;99.90;;;;;;5046957;28;20048;-51
2023/03/16 01:54:25;;;;;;;15.25;9.15;;;1.80;99.90;;;;;;5053397;28;20585;-51
2023/03/16 01:57:05;;;;;;;14.68;9.20;;;1.80;99.90;;;;;;5088004;28;20036;-49
2023/03/16 01:59:43;;;;;;;22.15;9.93;;;1.70;99.90;;;;;;5073622;28;20044;-52
2023/03/16 02:02:12;;;;;;;15.40;9.13;;;1.70;99.90;;;;;;5067917;28;20051;-50
2023/03/16 02:04:57;;;;;;;18.50;10.23;;;1.70;99.90;;;;;;5091869;28;20039;-49
2023/03/16 02:07:27;;;;;;;17.20;10.07;;;1.60;99.90;;;;;;5076378;28;20089;-51
2023/03/16 02:09:59;;;;;;;17.63;10.23;;;1.70;99.90;;;;;;5055835;28;20044;-51
2023/03/16 02:12:27;;;;;;;21.08;10.73;;;1.70;99.90;;;;;;5070462;28;20389;-49
2023/03/16 02:14:56;;;;;;;19.05;9.85;;;1.70;99.90;;;;;;5053115;28;20041;-50
2023/03/16 02:17:26;;;;;;;11.80;6.65;;;1.80;99.90;;;;;;5053313;28;20048;-50
2023/03/16 02:20:09;;;;;;;18.05;9.70;;;1.70;99.90;;;;;;5053035;28;20044;-52
2023/03/16 02:22:41;;;;;;;15.35;9.57;;;1.70;99.90;;;;;;5059190;28;20455;-50
2023/03/16 02:25:09;;;;;;;19.90;9.68;;;1.70;99.90;;;;;;5091786;28;20040;-51
2023/03/16 02:27:59;;;;;;;16.60;8.73;;;1.70;99.90;;;;;;5067661;28;20102;-52
2023/03/16 02:30:26;;;;;;;17.42;8.00;;;1.60;99.90;;;;;;5073128;28;20511;-51
2023/03/16 02:33:00;;;;;;;13.95;7.70;;;1.60;99.90;;;;;;5073096;28;20051;-49
2023/03/16 02:35:27;;;;;;;16.63;8.55;;;1.50;99.90;;;;;;5086820;28;20051;-50
2023/03/16 02:37:54;;;;;;;11.75;6.80;;;1.50;99.90;;;;;;5048933;28;20060;-52
2023/03/16 02:40:26;;;;;;;16.63;8.82;;;1.40;99.90;;;;;;5072931;28;20062;-53
2023/03/16 02:43:04;;;;;;;16.15;8.68;;;1.40;99.90;;;;;;5072995;28;20040;-50
2023/03/16 02:45:43;;;;;;;14.23;8.02;;;1.40;99.90;;;;;;5073409;28;20135;-49
2023/03/16 02:48:18;;;;;;;16.13;8.75;;;1.30;99.90;;;;;;5085332;28;20044;-49
2023/03/16 02:50:47;;;;;;;15.85;8.75;;;1.30;99.90;;;;;;5091368;28;20052;-53
2023/03/16 02:53:15;;;;;;;18.73;8.45;;;1.30;99.90;;;;;;5073119;28;20523;-49
2023/03/16 02:55:41;;;;;;;;;;;1.30;99.90;;;;;;5065753;28;20052;-49
2023/03/16 02:58:08;;;;;;;14.07;8.50;;;1.30;99.90;;;;;;5052726;28;20388;-50
2023/03/16 03:00:35;;;;;;;17.85;8.90;;;1.30;99.90;;;;;;5053187;28;20051;-50
2023/03/16 03:03:04;;;;;;;18.85;9.85;;;1.30;99.90;;;;;;5062698;28;20131;-51
2023/03/16 03:05:31;;;;;;;19.80;9.70;;;1.30;99.90;;;;;;5096944;28;20043;-50
2023/03/16 03:07:58;;;;;;;17.67;9.07;;;1.30;99.90;;;;;;5097640;28;20032;-49
2023/03/16 03:10:26;;;;;;;18.40;8.98;;;1.30;99.90;;;;;;5066092;28;20774;-49
2023/03/16 03:12:53;;;;;;;16.08;8.73;;;1.20;99.90;;;;;;5059785;28;20102;-54
2023/03/16 03:15:20;;;;;;;15.55;8.60;;;1.00;99.90;;;;;;5077786;28;20086;-49
2023/03/16 03:17:59;;;;;;;17.55;8.27;;;1.00;99.90;;;;;;5057270;28;20132;-52
2023/03/16 03:20:29;;;;;;;15.88;7.78;;;0.90;99.90;;;;;;5079250;28;20036;-50
2023/03/16 03:22:56;;;;;;;14.63;7.40;;;0.90;99.90;;;;;;5097562;28;20085;-50
2023/03/16 03:25:23;;;;;;;13.98;7.18;;;0.90;99.90;;;;;;5079773;28;20431;-49
2023/03/16 03:27:55;;;;;;;13.13;7.18;;;0.90;99.90;;;;;;5069907;28;20040;-49
2023/03/16 03:30:24;;;;;;;14.65;7.97;;;0.90;99.90;;;;;;5059357;28;20443;-50
2023/03/16 03:32:51;;;;;;;14.18;7.30;;;0.90;99.90;;;;;;5076481;28;20125;-51
2023/03/16 03:35:20;;;;;;;13.93;7.53;;;0.90;99.90;;;;;;5063613;28;20039;-50
2023/03/16 03:37:47;;;;;;;13.05;7.47;;;0.90;99.90;;;;;;5079043;28;20452;-52
2023/03/16 03:40:16;;;;;;;13.60;7.03;;;0.80;99.90;;;;;;5058686;28;20044;-50
2023/03/16 03:42:46;;;;;;;15.07;7.65;;;0.80;99.90;;;;;;5059180;28;20045;-51
2023/03/16 03:45:14;;;;;;;13.82;7.57;;;0.80;99.90;;;;;;5059250;28;20049;-50
2023/03/16 03:47:42;;;;;;;13.50;7.13;;;0.80;99.90;;;;;;5055667;28;20051;-52
2023/03/16 03:50:14;;;;;;;14.13;7.25;;;0.80;99.90;;;;;;5061713;28;20051;-51
2023/03/16 03:52:54;;;;;;;11.30;7.00;;;0.80;99.90;;;;;;5079734;28;20066;-49
2023/03/16 03:55:21;;;;;;;9.15;4.82;;;0.80;99.90;;;;;;5078811;28;20120;-49
2023/03/16 03:57:48;;;;;;;13.43;6.85;;;0.80;99.90;;;;;;5097681;28;20040;-52
2023/03/16 04:00:19;;;;;;;12.50;6.53;;;0.80;99.90;;;;;;5084435;28;20546;-49
2023/03/16 04:02:46;;;;;;;11.77;6.43;;;0.80;99.90;;;;;;5059728;28;20052;-50
2023/03/16 04:05:27;;;;;;;12.32;6.40;;;0.80;99.90;;;;;;5059136;28;20105;-51
2023/03/16 04:07:56;;;;;;;12.13;6.20;;;0.80;99.90;;;;;;5085130;22;20049;-48
2023/03/16 04:10:24;;;;;;;14.48;6.65;;;0.80;99.90;;;;;;5057551;28;20059;-52
2023/03/16 04:12:52;;;;;;;13.05;6.18;;;0.70;99.90;;;;;;5059287;28;20132;-48
2023/03/16 04:15:19;;;;;;;13.68;7.47;;;0.70;99.90;;;;;;5058116;28;20040;-52
2023/03/16 04:18:06;;;;;;;12.68;6.80;;;0.70;99.90;;;;;;5043655;28;20505;-50
2023/03/16 04:20:32;;;;;;;11.75;6.10;;;0.60;99.90;;;;;;5035632;28;20437;-50
2023/03/16 04:23:00;;;;;;;12.27;6.97;;;0.50;99.90;;;;;;5034965;28;20049;-49
2023/03/16 04:25:29;;;;;;;12.50;6.03;;;0.50;99.90;;;;;;5050458;28;20136;-48
2023/03/16 04:27:57;;;;;;;14.60;7.03;;;0.50;99.90;;;;;;5034154;28;20044;-48
2023/03/16 04:30:29;;;;;;;10.80;6.35;;;0.50;99.90;;;;;;5035246;28;20509;-49
2023/03/16 04:33:06;;;;;;;14.10;7.40;;;0.50;99.90;;;;;;5034858;28;20493;-50
2023/03/16 04:35:33;;;;;;;15.07;7.47;;;0.50;99.90;;;;;;5034314;28;20052;-50
2023/03/16 04:38:01;;;;;;;12.98;7.28;;;0.50;99.90;;;;;;5034109;28;20037;-52
2023/03/16 04:40:37;;;;;;;11.70;5.50;;;0.40;99.90;;;;;;5033534;28;20497;-52
2023/03/16 04:43:12;;;;;;;13.20;7.05;;;0.40;99.90;;;;;;5032938;28;20047;-51
2023/03/16 04:45:40;;;;;;;9.75;5.95;;;0.30;99.90;;;;;;5034558;28;20037;-50
2023/03/16 04:48:09;;;;;;;;;;;0.40;99.90;;;;;;5034056;28;20037;-48
2023/03/16 04:50:36;;;;;;;14.15;6.10;;;0.30;99.90;;;;;;5034794;28;19920;-51
2023/03/16 04:53:03;;;;;;;11.90;6.28;;;0.30;99.90;;;;;;5033934;28;20049;-49
2023/03/16 04:55:31;;;;;;;;;;;0.30;99.90;;;;;;5032972;28;20072;-51
2023/03/16 04:57:58;;;;;;;17.08;7.65;;;0.30;99.90;;;;;;5033905;28;20024;-52
2023/03/16 05:00:27;;;;;;;15.48;7.45;;;0.20;99.90;;;;;;5033917;28;20037;-49
2023/03/16 05:03:01;;;;;;;14.43;7.30;;;0.20;99.90;;;;;;5034119;28;20037;-49
2023/03/16 05:05:28;;;;;;;41.22;9.82;;;0.20;99.90;;;;;;5035005;28;20048;-52
2023/03/16 05:07:55;;;;;;;126.45;12.75;;;0.20;99.90;;;;;;5048101;28;20114;-53
2023/03/16 05:10:25;;;;;;;54.47;11.57;;;0.20;99.90;;;;;;5045162;28;20049;-49
2023/03/16 05:12:53;;;;;;;25.48;9.95;;;0.20;99.90;;;;;;5034414;28;20525;-50
2023/03/16 05:15:20;;;;;;;75.10;12.52;;;0.20;99.90;;;;;;5031926;28;20417;-51
2023/03/16 05:17:56;;;;;;;122.72;14.75;;;0.20;99.90;;;;;;5049510;28;20132;-51
2023/03/16 05:20:24;;;;;;;19.50;9.10;;;0.20;99.90;;;;;;5032166;28;20043;-51
2023/03/16 05:22:54;;;;;;;27.13;10.63;;;0.20;99.90;;;;;;5048972;28;20512;-48
2023/03/16 05:25:33;;;;;;;25.08;10.38;;;0.30;99.90;;;;;;5029173;28;20497;-48
2023/03/16 05:28:04;;;;;;;22.85;11.02;;;0.30;99.90;;;;;;5043874;28;20059;-51
2023/03/16 05:30:37;;;;;;;23.83;10.27;;;0.30;99.90;;;;;;5034016;28;20037;-50
2023/03/16 05:33:08;;;;;;;19.70;10.50;;;0.40;99.90;;;;;;5034079;28;20052;-50
2023/03/16 05:35:35;;;;;;;24.83;10.75;;;0.40;99.90;;;;;;5050309;28;20116;-50
2023/03/16 05:38:06;;;;;;;29.38;10.95;;;0.40;99.90;;;;;;5034248;28;20077;-51
2023/03/16 05:40:36;;;;;;;24.25;11.20;;;0.40;99.90;;;;;;5028729;28;20046;-52
2023/03/16 05:43:29;;;;;;;22.80;10.70;;;0.50;99.90;;;;;;5049434;28;20052;-49
2023/03/16 05:45:57;;;;;;;19.92;9.43;;;0.50;99.90;;;;;;5047124;28;20131;-49
2023/03/16 05:48:24;;;;;;;22.52;11.02;;;0.60;99.90;;;;;;5045877;28;20094;-50
2023/03/16 05:50:54;;;;;;;22.02;11.40;;;0.60;99.90;;;;;;5048699;28;20358;-47
2023/03/16 05:53:27;;;;;;;27.85;11.77;;;0.70;99.90;;;;;;5050354;28;20048;-49
2023/03/16 05:56:01;;;;;;;24.00;12.02;;;0.80;99.90;;;;;;5017408;28;20095;-48
2023/03/16 05:58:32;;;;;;;24.90;11.75;;;0.80;99.90;;;;;;5049470;28;20033;-49
2023/03/16 06:01:04;;;;;;;31.73;12.43;;;0.90;99.90;;;;;;5031241;28;20557;-48
2023/03/16 06:03:31;;;;;;;23.63;11.43;;;0.90;99.90;;;;;;5038119;28;20038;-48
2023/03/16 06:06:00;;;;;;;24.83;11.77;;;1.00;99.90;;;;;;5032452;28;20052;-49
2023/03/16 06:08:32;;;;;;;24.08;11.50;;;1.00;99.90;;;;;;5031147;28;20073;-49
2023/03/16 06:11:06;;;;;;;22.05;10.75;;;1.00;99.90;;;;;;5031575;28;20044;-47
2023/03/16 06:13:33;;;;;;;;;;;1.10;99.90;;;;;;5030889;28;20048;-48
2023/03/16 06:16:00;;;;;;;25.75;11.77;;;1.10;99.90;;;;;;5042930;28;19975;-50
2023/03/16 06:18:28;;;;;;;26.65;12.82;;;1.10;99.90;;;;;;5048773;28;20128;-51
2023/03/16 06:20:55;;;;;;;;;;;1.20;99.90;;;;;;5034257;28;20041;-50
2023/03/16 06:23:23;;;;;;;22.48;10.98;;;1.20;99.90;;;;;;5033702;28;20347;-50
2023/03/16 06:25:53;;;;;;;25.10;11.73;;;1.20;99.90;;;;;;5045325;28;20494;-49
2023/03/16 06:28:23;;;;;;;27.17;12.05;;;1.20;99.90;;;;;;5042443;28;20049;-47
2023/03/16 06:30:54;;;;;;;22.88;11.50;;;1.30;99.90;;;;;;5049821;28;20099;-51
2023/03/16 06:33:23;;;;;;;21.90;10.93;;;1.40;99.90;;;;;;5050172;28;20041;-49
2023/03/16 06:35:50;;;;;;;23.05;11.07;;;1.40;99.90;;;;;;5033039;28;20098;-52
2023/03/16 06:38:28;;;;;;;15.75;7.65;;;1.50;99.90;;;;;;5032940;28;20712;-49
2023/03/16 06:41:00;;;;;;;14.40;8.27;;;1.50;99.90;;;;;;5032213;28;20055;-50
2023/03/16 06:43:28;;;;;;;17.73;9.45;;;1.50;99.90;;;;;;5032990;28;20049;-52
2023/03/16 06:45:55;;;;;;;10.90;5.57;;;1.50;99.90;;;;;;5050816;28;20044;-51
2023/03/16 06:48:22;;;;;;;18.08;9.00;;;1.60;99.90;;;;;;5033115;28;20642;-49
2023/03/16 06:50:49;;;;;;;18.02;9.95;;;1.60;99.90;;;;;;5031937;28;20049;-49
2023/03/16 06:53:21;;;;;;;18.48;9.77;;;1.70;99.90;;;;;;5049934;28;20136;-50
2023/03/16 06:55:48;;;;;;;19.38;9.60;;;1.70;99.90;;;;;;5033269;28;20044;-49
2023/03/16 06:58:31;;;;;;;15.70;8.75;;;1.70;99.90;;;;;;5031547;28;20144;-49
2023/03/16 07:01:03;;;;;;;17.52;9.10;;;1.70;99.90;;;;;;5030355;28;20045;-49
2023/03/16 07:03:30;;;;;;;19.70;8.52;;;1.70;99.90;;;;;;5049844;28;20060;-50
2023/03/16 07:06:04;;;;;;;15.80;8.13;;;1.70;99.90;;;;;;5031970;28;20098;-50
2023/03/16 07:08:31;;;;;;;15.98;7.65;;;1.80;99.90;;;;;;5032457;28;20472;-49
2023/03/16 07:10:58;;;;;;;17.33;8.57;;;1.80;99.90;;;;;;5023503;28;20493;-51
2023/03/16 07:13:25;;;;;;;14.00;7.55;;;1.70;99.90;;;;;;5029808;28;20088;-49
2023/03/16 07:15:53;;;;;;;15.50;8.23;;;1.80;99.90;;;;;;5031423;28;20413;-52
2023/03/16 07:18:24;;;;;;;12.90;7.45;;;1.70;99.90;;;;;;5032261;28;20115;-51
2023/03/16 07:20:52;;;;;;;15.02;7.95;;;1.80;99.90;;;;;;5023674;28;20047;-51
2023/03/16 07:23:21;;;;;;;19.00;9.65;;;2.00;99.90;;;;;;5041898;28;20099;-49
2023/03/16 07:25:47;;;;;;;18.35;9.90;;;2.10;99.90;;;;;;5032650;28;20417;-50
2023/03/16 07:28:17;;;;;;;15.13;8.40;;;2.20;99.90;;;;;;5031370;28;20048;-51
2023/03/16 07:30:45;;;;;;;14.38;8.25;;;2.30;99.90;;;;;;5050577;28;20041;-49
2023/03/16 07:33:34;;;;;;;18.13;8.43;;;2.30;99.90;;;;;;5013616;28;20056;-49
2023/03/16 07:36:04;;;;;;;18.08;9.23;;;2.30;99.90;;;;;;5036211;28;20448;-51
2023/03/16 07:38:35;;;;;;;19.80;9.27;;;2.30;99.90;;;;;;5032368;28;20412;-48
2023/03/16 07:41:02;;;;;;;14.60;6.00;;;2.30;99.90;;;;;;5031518;28;20057;-49
2023/03/16 07:43:29;;;;;;;16.60;8.18;;;2.40;99.90;;;;;;5032853;28;20041;-51
2023/03/16 07:45:56;;;;;;;10.65;5.70;;;2.40;99.90;;;;;;5027600;28;20033;-51
2023/03/16 07:48:24;;;;;;;14.65;7.05;;;2.50;99.90;;;;;;5029104;28;20076;-49
2023/03/16 07:50:58;;;;;;;15.65;7.28;;;2.70;99.90;;;;;;5029701;28;20056;-50
2023/03/16 07:53:26;;;;;;;13.45;7.38;;;2.90;99.90;;;;;;5049714;28;20053;-49
2023/03/16 07:56:09;;;;;;;13.65;7.28;;;3.20;99.90;;;;;;5051024;28;20041;-49
2023/03/16 07:58:38;;;;;;;15.50;8.00;;;3.40;99.90;;;;;;5035626;28;20505;-49
2023/03/16 08:01:05;;;;;;;12.68;7.53;;;3.60;99.90;;;;;;5026830;28;20054;-50
2023/03/16 08:03:32;;;;;;;18.13;8.63;;;3.80;99.90;;;;;;5033843;28;20053;-52
2023/03/16 08:06:00;;;;;;;11.75;7.03;;;3.90;99.90;;;;;;5032042;28;20057;-52
2023/03/16 08:08:26;;;;;;;12.50;7.00;;;4.20;99.90;;;;;;5033946;28;20148;-50
2023/03/16 08:10:53;;;;;;;10.60;5.13;;;4.50;99.90;;;;;;5052769;28;20521;-49
2023/03/16 08:13:29;;;;;;;10.50;6.25;;;4.80;99.90;;;;;;5036287;28;20041;-49
2023/03/16 08:16:00;;;;;;;13.15;6.13;;;5.10;99.90;;;;;;5052043;28;20469;-49
2023/03/16 08:18:38;;;;;;;10.23;5.80;;;5.20;99.90;;;;;;5036129;28;20045;-52
2023/03/16 08:21:05;;;;;;;;;;;5.30;99.90;;;;;;5035809;28;20406;-51
2023/03/16 08:23:32;;;;;;;10.32;6.32;;;5.20;99.90;;;;;;5052723;28;20351;-50
2023/03/16 08:26:00;;;;;;;;;;;5.10;99.90;;;;;;5035286;28;20374;-50
2023/03/16 08:28:26;;;;;;;10.93;5.97;;;5.10;99.90;;;;;;5032001;28;19922;-53
2023/03/16 08:30:57;;;;;;;12.07;6.13;;;5.00;99.90;;;;;;5034693;28;20468;-49
2023/03/16 08:33:37;;;;;;;9.25;6.30;;;5.00;99.90;;;;;;5035662;28;20041;-50
2023/03/16 08:36:06;;;;;;;11.88;5.85;;;4.90;99.90;;;;;;5052281;28;20041;-50
2023/03/16 08:38:33;;;;;;;14.65;6.43;;;4.90;99.90;;;;;;5034461;28;20077;-50
2023/03/16 08:41:05;;;;;;;9.75;6.07;;;4.90;99.90;;;;;;5035665;28;20472;-52
2023/03/16 08:43:33;;;;;;;11.48;6.97;;;4.80;99.90;;;;;;5052354;28;20051;-50
2023/03/16 08:46:00;;;;;;;12.52;7.07;;;4.80;99.90;;;;;;5050584;28;20044;-50
2023/03/16 08:48:39;;;;;;;10.13;6.00;;;5.00;99.90;;;;;;5034843;28;20149;-52
2023/03/16 08:51:06;;;;;;;11.13;5.78;;;5.20;99.90;;;;;;5034904;28;20048;-49
2023/03/16 08:53:33;;;;;;;;;;;5.20;99.90;;;;;;5053626;28;20041;-49
2023/03/16 08:56:03;;;;;;;13.73;6.35;;;5.10;99.90;;;;;;5034987;28;19920;-50
2023/03/16 08:58:31;;;;;;;14.05;6.55;;;5.00;99.90;;;;;;5052776;28;20056;-48
2023/03/16 09:00:59;;;;;;;10.30;6.78;;;4.90;99.90;;;;;;5050320;28;20069;-49
2023/03/16 09:03:26;;;;;;;10.88;6.35;;;4.90;99.90;;;;;;5052323;28;20493;-50
2023/03/16 09:06:00;;;;;;;11.10;5.63;;;4.90;99.90;;;;;;5051995;28;20045;-49
2023/03/16 09:08:28;;;;;;;11.30;6.38;;;5.00;99.90;;;;;;5050981;28;20037;-50
2023/03/16 09:11:02;;;;;;;15.02;6.38;;;5.10;99.90;;;;;;5051180;28;20049;-48
2023/03/16 09:13:30;;;;;;;10.45;6.22;;;5.20;99.90;;;;;;5035139;28;20041;-49
2023/03/16 09:15:56;;;;;;;;;;;5.10;99.90;;;;;;5052757;28;20409;-52
2023/03/16 09:18:25;;;;;;;9.50;5.30;;;4.90;99.90;;;;;;5051724;28;20274;-51
2023/03/16 09:20:59;;;;;;;10.18;5.30;;;5.10;99.90;;;;;;5052600;28;20041;-50
2023/03/16 09:23:26;;;;;;;9.35;5.38;;;5.30;99.90;;;;;;5033055;28;20045;-49
2023/03/16 09:25:56;;;;;;;12.48;5.63;;;5.40;99.90;;;;;;5032953;28;20386;-51
2023/03/16 09:28:24;;;;;;;8.65;5.60;;;5.50;99.90;;;;;;5048383;28;20075;-50
2023/03/16 09:30:50;;;;;;;;;;;5.60;99.90;;;;;;5052982;28;20041;-49
2023/03/16 09:33:17;;;;;;;8.00;4.97;;;5.70;99.90;;;;;;5052444;28;19929;-49
2023/03/16 09:35:45;;;;;;;7.97;5.13;;;5.80;99.90;;;;;;5052101;28;20473;-53
2023/03/16 09:38:12;;;;;;;;;;;5.90;99.90;;;;;;5051179;28;20053;-50
2023/03/16 09:40:40;;;;;;;14.38;5.18;;;5.90;99.90;;;;;;5052143;28;20443;-50
2023/03/16 09:43:32;;;;;;;8.15;4.70;;;6.00;99.90;;;;;;5049265;28;20059;-51
2023/03/16 09:46:14;;;;;;;6.38;4.22;;;6.10;99.90;;;;;;5052018;28;20042;-49
2023/03/16 09:48:41;;;;;;;9.63;4.85;;;6.00;99.90;;;;;;5032608;28;20045;-49
2023/03/16 09:51:35;;;;;;;7.95;4.72;;;6.00;99.90;;;;;;5052010;28;20512;-49
2023/03/16 09:54:13;;;;;;;20.60;5.65;;;6.10;99.90;;;;;;5002951;28;20044;-49
2023/03/16 09:56:41;;;;;;;;;;;6.20;99.90;;;;;;5037490;28;20042;-49
2023/03/16 09:59:14;;;;;;;9.50;4.18;;;6.10;99.90;;;;;;5031489;28;19967;-49
2023/03/16 10:02:09;;;;;;;10.80;4.78;;;6.20;99.90;;;;;;5040343;28;20037;-49
2023/03/16 10:05:08;;;;;;;9.73;4.00;;;6.30;99.90;;;;;;5045818;28;20354;-49
2023/03/16 10:08:00;;;;;;;10.93;3.90;;;6.30;99.90;;;;;;5060172;22;20068;-49
2023/03/16 10:10:37;;;;;;;10.05;4.15;;;6.40;99.90;;;;;;5060725;28;20060;-48
2023/03/16 10:13:16;;;;;;;7.50;3.92;;;6.50;99.90;;;;;;5059496;28;20079;-51
2023/03/16 10:15:45;;;;;;;9.10;3.30;;;6.60;99.90;;;;;;5070473;28;20072;-48
2023/03/16 10:18:19;;;;;;;12.73;3.83;;;6.70;99.90;;;;;;5076608;28;20140;-48
2023/03/16 10:20:46;;;;;;;8.60;3.42;;;6.90;99.90;;;;;;5076863;28;20036;-48
2023/03/16 10:23:20;;;;;;;7.90;3.42;;;7.10;99.90;;;;;;5070868;28;20065;-47
2023/03/16 10:25:49;;;;;;;12.07;4.20;;;7.10;99.90;;;;;;5070750;28;20097;-50
2023/03/16 10:28:22;;;;;;;4.90;3.25;;;7.00;99.90;;;;;;5061813;28;20098;-50
2023/03/16 10:30:51;;;;;;;7.15;2.75;;;7.10;99.90;;;;;;5071295;28;20032;-47
2023/03/16 10:33:27;;;;;;;5.38;2.95;;;6.80;99.90;;;;;;5071546;28;20032;-49
2023/03/16 10:36:04;;;;;;;4.32;2.70;;;6.90;99.90;;;;;;5069195;28;20094;-48
2023/03/16 10:38:49;;;;;;;3.30;2.57;;;7.10;99.90;;;;;;5071079;28;20048;-47
2023/03/16 10:41:21;;;;;;;9.40;3.63;;;7.20;99.90;;;;;;5071639;28;20054;-47
2023/03/16 10:43:54;;;;;;;4.30;2.47;;;7.30;99.90;;;;;;5062254;28;20123;-47
2023/03/16 10:46:22;;;;;;;5.75;2.17;;;7.40;99.90;;;;;;5071229;28;20052;-47
2023/03/16 10:49:26;;;;;;;6.55;2.03;;;7.60;99.90;;;;;;5070756;28;20435;-47
2023/03/16 10:51:58;;;;;;;4.95;1.98;;;7.70;99.90;;;;;;5037039;28;20052;-48
2023/03/16 10:54:30;;;;;;;5.20;1.70;;;7.80;99.90;;;;;;5071033;28;20041;-48
2023/03/16 10:56:59;;;;;;;4.90;1.70;;;7.90;99.90;;;;;;5069704;28;20106;-47
2023/03/16 10:59:28;;;;;;;2.35;1.60;;;7.90;99.90;;;;;;5063690;28;20492;-47
2023/03/16 11:01:55;;;;;;;4.35;1.67;;;7.90;99.90;;;;;;5070606;28;20052;-50
2023/03/16 11:04:23;;;;;;;6.25;1.95;;;7.90;99.90;;;;;;5071342;28;20447;-47
2023/03/16 11:06:54;;;;;;;;;;;8.00;99.90;;;;;;5068712;28;20044;-48
2023/03/16 11:09:32;;;;;;;5.57;1.52;;;8.10;99.90;;;;;;5070234;28;19920;-48
2023/03/16 11:12:12;;;;;;;1.90;1.67;;;8.20;99.90;;;;;;5070874;28;20040;-48
2023/03/16 11:14:43;;;;;;;1.65;1.30;;;8.30;99.90;;;;;;5065107;28;20041;-47
2023/03/16 11:17:38;;;;;;;2.30;1.30;;;8.40;99.90;;;;;;5071009;28;20456;-47
2023/03/16 11:20:13;;;;;;;5.50;1.60;;;8.40;99.90;;;;;;5070639;28;20451;-47
2023/03/16 11:22:44;;;;;;;1.70;1.42;;;8.30;99.90;;;;;;5062062;28;20045;-48
2023/03/16 11:25:45;;;;;;;3.67;1.23;;;8.40;99.90;;;;;;5070924;28;20063;-47
2023/03/16 11:28:18;;;;;;;3.10;1.23;;;8.50;99.90;;;;;;5061550;28;20065;-47
2023/03/16 11:30:45;;;;;;;3.40;1.38;;;8.50;99.90;;;;;;5073797;28;20400;-47
2023/03/16 11:33:14;;;;;;;1.45;1.15;;;8.60;99.90;;;;;;5075125;28;20037;-48
2023/03/16 11:36:11;;;;;;;1.67;1.33;;;8.80;99.90;;;;;;5072106;28;20046;-50
2023/03/16 11:39:04;;;;;;;2.08;1.13;;;8.90;99.40;;;;;;5069095;28;20040;-48
2023/03/16 11:41:55;;;;;;;1.50;1.17;;;9.00;98.50;;;;;;5053061;28;20074;-47
2023/03/16 11:44:40;;;;;;;1.73;1.20;;;9.00;98.60;;;;;;5054920;28;20054;-47
2023/03/16 11:47:23;;;;;;;4.53;1.30;;;8.70;98.90;;;;;;5062936;28;20041;-49
2023/03/16 11:50:13;;;;;;;3.28;1.42;;;8.60;99.10;;;;;;5070149;28;20032;-47
2023/03/16 11:53:03;;;;;;;2.15;1.50;;;8.70;99.90;;;;;;5074429;28;20036;-47
2023/03/16 11:55:40;;;;;;;4.88;1.55;;;9.00;99.70;;;;;;5074551;28;20033;-48
2023/03/16 11:58:18;;;;;;;7.18;1.85;;;9.10;99.60;;;;;;5064582;28;20102;-47
2023/03/16 12:00:59;;;;;;;2.92;1.52;;;9.30;99.90;;;;;;5069868;28;20044;-50
2023/03/16 12:03:44;;;;;;;2.85;1.63;;;9.30;99.90;;;;;;5074035;28;20070;-49
2023/03/16 12:06:23;;;;;;;2.10;1.38;;;9.20;99.90;;;;;;5070918;28;20088;-47
2023/03/16 12:09:17;;;;;;;1.58;1.48;;;9.30;97.60;;;;;;5073444;28;20495;-48
2023/03/16 12:12:01;;;;;;;3.42;1.00;;;9.30;98.80;;;;;;5073003;28;20451;-48
2023/03/16 12:15:13;;;;;;;1.23;0.90;;;9.50;97.50;;;;;;5074361;28;20045;-47
2023/03/16 12:17:42;;;;;;;2.00;1.33;;;9.70;97.00;;;;;;5066645;28;20518;-52
2023/03/16 12:20:18;;;;;;;6.63;1.30;;;9.90;98.30;;;;;;5073383;28;20072;-48
2023/03/16 12:22:54;;;;;;;3.38;1.40;;;10.00;99.40;;;;;;5073793;28;20045;-47
2023/03/16 12:25:25;;;;;;;5.43;1.27;;;10.10;97.80;;;;;;5074164;28;20102;-48
2023/03/16 12:27:55;;;;;;;2.60;1.20;;;10.20;98.10;;;;;;5070647;28;20071;-48
2023/03/16 12:30:35;;;;;;;5.53;0.90;;;10.10;97.70;;;;;;5073358;28;20595;-48
2023/03/16 12:33:33;;;;;;;2.45;1.00;;;10.30;97.10;;;;;;5071112;28;20551;-47
2023/03/16 12:36:17;;;;;;;2.35;0.85;;;10.30;96.00;;;;;;5073694;28;20036;-49
2023/03/16 12:38:49;;;;;;;3.58;0.93;;;10.50;96.80;;;;;;5066019;28;20079;-48
2023/03/16 12:41:52;;;;;;;0.88;0.70;;;10.40;95.70;;;;;;5073071;28;20098;-47
2023/03/16 12:44:31;;;;;;;1.98;0.80;;;10.40;92.60;;;;;;5073185;28;20453;-47
2023/03/16 12:47:18;;;;;;;1.88;0.75;;;10.40;93.50;;;;;;5051937;28;20095;-49
2023/03/16 12:49:45;;;;;;;1.05;0.70;;;10.40;92.80;;;;;;5072924;28;20037;-49
2023/03/16 12:52:13;;;;;;;3.15;0.75;;;10.40;93.10;;;;;;5073732;28;20032;-47
2023/03/16 12:55:06;;;;;;;3.28;0.88;;;10.40;92.30;;;;;;5068354;28;20055;-48
2023/03/16 12:57:32;;;;;;;2.22;1.00;;;10.40;93.10;;;;;;5072819;28;20049;-48
2023/03/16 13:00:00;;;;;;;1.17;0.90;;;10.50;93.00;;;;;;5073108;28;20106;-48
2023/03/16 13:02:36;;;;;;;1.45;0.82;;;10.50;93.20;;;;;;5071543;28;20500;-50
2023/03/16 13:05:08;;;;;;;2.50;1.00;;;10.70;92.70;;;;;;5073857;28;20048;-47
2023/03/16 13:07:37;;;;;;;2.83;1.23;;;10.70;93.20;;;;;;5070777;28;20037;-47
2023/03/16 13:10:12;;;;;;;6.68;1.45;;;10.80;93.20;;;;;;5072299;28;20119;-48
2023/03/16 13:12:40;;;;;;;3.08;1.08;;;10.90;93.20;;;;;;5072614;28;20517;-48
2023/03/16 13:15:16;;;;;;;2.28;0.88;;;10.80;93.50;;;;;;5073019;28;20524;-50
2023/03/16 13:17:43;;;;;;;2.50;0.90;;;10.90;93.30;;;;;;5065752;28;20094;-48
2023/03/16 13:20:12;;;;;;;1.98;0.95;;;10.90;93.10;;;;;;5072351;28;20055;-50